EPSYEPGD

Guest
Details From EPSY - SZYMANY
To EPGD - LECH WALESA
Flight Number -
Tags generated
Created
Modified
Stats Distance 103 nm / 190 km
Max Altitude 5,500 ft / 1,676 m
Waypoints 3
Social Downloads 2
Likes 0
Share VATSIM

Download

Looking for another format? Having issues loading an existing format? Contact us
Advertisement - Login to hide

Notes

Basic altitude profile: - Ascent Rate: 2500ft/min - Ascent Speed: 100kts - Cruise Altitude: 7000ft - Cruise Speed: 90kts - Descent Rate: 1500ft/min - Descent Speed: 60kts Options: - Use NATs: no - Use PACOTS: no - Use low airways: yes - Use high airways: no

Route

EPSY KMI EPGD

ID Type Via Altitude Latitude Longitude Leg Dist Tot Dist Heading (true) Name
O EPSY APT - 0 ft / 0 m 53.47973˚ 20.93650˚ - 0 nm - SZYMANY
KMI VOR - 5,500 ft / 1,676 m 54.20130˚ 19.14507˚ 76 nm 76 nm 305° / 304° KMIECIN VOR
O EPGD APT - 0 ft / 0 m 54.37617˚ 18.47188˚ 25 nm 102 nm 294° / 294° LECH WALESA

Altitude Profile

Advertisement - Login to hide

EPSY

Details ICAO EPSY
Name SZYMANY
Region Poland
Timezone Europe/Warsaw (UTC+2.0)
Stats Elevation 463 ft / 141 m (AMSL)
Location 53.479731° 20.936497°
Runways 1
Magnetic Variation 6.074° E

METAR

EPSY 251100Z 14004KT 110V190 9999 -SHRA VCTS BKN033CB 18/15 Q1022 RESHRA

Decode

TAF

Not found

Departure Runways

ID Width Length Bearing (true) Bearing (mag) Surface Threshold Offset Overrun Length
02 197 ft / 60 m 6,556 ft / 1,998 m 18.43° 12.36° Concrete 0 ft / 0 m 0 ft / 0 m
20 197 ft / 60 m 6,556 ft / 1,998 m 198.43° 192.36° Concrete 0 ft / 0 m 0 ft / 0 m

EPGD

Details ICAO EPGD (GDN)
Name LECH WALESA
Region Poland
Timezone Europe/Warsaw (UTC+2.0)
Stats Elevation 489 ft / 149 m (AMSL)
Location 54.376167° 18.471884°
Runways 1
Magnetic Variation 5.511° E

METAR

EPGD 251100Z 04008KT 360V080 CAVOK 20/10 Q1023

Decode

TAF

TAF TAF EPGD 250530Z 2506/2606 VRB02KT CAVOK BECMG 2511/2513 04010KT TEMPO 2512/2524 SHRA BKN030CB PROB40 TEMPO 2512/2520 TSRA BECMG 2519/2521 VRB04KT PROB40 2600/2606 3000 BR

Decode

Destination Runways

ID Width Length Bearing (true) Bearing (mag) Surface Threshold Offset Overrun Length
11 148 ft / 45 m 9,158 ft / 2,791 m 112.96° 107.45° Asphalt 0 ft / 0 m 0 ft / 0 m
29 148 ft / 45 m 9,158 ft / 2,791 m 293.00° 287.49° Asphalt 0 ft / 0 m 0 ft / 0 m

Approach Navaids

Runway Type Ident Frequency Range Bearing (true) Bearing (mag) Slope Elevation
29 Localiser IGDA 110.30 MHz 18 nm / 33 km 292.96° 287.45° - 489 ft / 149 m (AMSL)
29 Glidescope IGDA 110.30 MHz 10 nm / 19 km 292.98° 287.47° 2.90° 489 ft / 149 m (AMSL)
29 DME IGDA 110.30 MHz 18 nm / 33 km - - - 492 ft / 150 m (AMSL)

Popular Alternatives